createdAt,value
2023-05-19T00:00:02.263Z,15.91
2023-05-19T00:02:39.791Z,15.71
2023-05-19T00:05:07.949Z,15.92
2023-05-19T00:07:38.315Z,15.80
2023-05-19T00:10:06.842Z,15.82
2023-05-19T00:12:34.202Z,15.75
2023-05-19T00:15:01.844Z,15.83
2023-05-19T00:17:34.573Z,15.75
2023-05-19T00:20:01.909Z,15.90
2023-05-19T00:22:31.207Z,15.86
2023-05-19T00:24:58.422Z,15.87
2023-05-19T00:27:25.465Z,15.87
2023-05-19T00:29:52.619Z,15.77
2023-05-19T00:32:19.850Z,15.89
2023-05-19T00:34:48.574Z,15.93
2023-05-19T00:37:17.669Z,15.99
2023-05-19T00:39:45.326Z,16.01
2023-05-19T00:42:12.796Z,16.02
2023-05-19T00:44:41.544Z,16.01
2023-05-19T00:47:09.335Z,15.98
2023-05-19T00:49:36.498Z,15.95
2023-05-19T00:52:06.474Z,15.91
2023-05-19T00:54:34.983Z,15.93
2023-05-19T00:57:03.697Z,15.98
2023-05-19T00:59:31.017Z,15.95
2023-05-19T01:01:58.302Z,15.70
2023-05-19T01:04:26.660Z,15.86
2023-05-19T01:06:57.078Z,15.63
2023-05-19T01:09:24.247Z,15.72
2023-05-19T01:11:51.298Z,15.65
2023-05-19T01:14:20.073Z,15.55
2023-05-19T01:16:59.706Z,15.56
2023-05-19T01:20:14.103Z,15.62
2023-05-19T01:22:56.699Z,15.55
2023-05-19T01:25:53.174Z,15.56
2023-05-19T01:28:20.326Z,15.50
2023-05-19T01:30:52.875Z,15.46
2023-05-19T01:33:21.892Z,15.47
2023-05-19T01:35:50.454Z,15.45
2023-05-19T01:38:20.770Z,15.46
2023-05-19T01:40:53.121Z,15.43
2023-05-19T01:43:24.402Z,15.43
2023-05-19T01:45:53.626Z,15.39
2023-05-19T01:48:23.372Z,15.31
2023-05-19T01:50:51.298Z,15.20
2023-05-19T01:53:18.532Z,15.20
2023-05-19T01:55:49.775Z,15.07
2023-05-19T01:58:35.280Z,14.90
2023-05-19T02:01:34.197Z,14.65
2023-05-19T02:04:13.450Z,14.70
2023-05-19T02:07:07.559Z,14.51
2023-05-19T02:09:44.868Z,14.73
2023-05-19T02:12:21.823Z,14.73
2023-05-19T02:15:06.402Z,14.69
2023-05-19T02:17:40.595Z,14.50
2023-05-19T02:20:12.150Z,14.41
2023-05-19T02:22:39.754Z,14.43
2023-05-19T02:25:08.313Z,14.36
2023-05-19T02:27:38.858Z,14.33
2023-05-19T02:30:08.522Z,14.31
2023-05-19T02:32:37.790Z,14.23
2023-05-19T02:35:05.561Z,14.14
2023-05-19T02:37:32.766Z,14.25
2023-05-19T02:39:59.852Z,14.25
2023-05-19T02:42:26.973Z,14.28
2023-05-19T02:44:55.033Z,14.19
2023-05-19T02:47:22.475Z,14.27
2023-05-19T02:49:49.562Z,14.12
2023-05-19T02:52:16.791Z,14.30
2023-05-19T02:54:44.081Z,14.17
2023-05-19T02:57:11.405Z,13.66
2023-05-19T02:59:38.579Z,13.57
2023-05-19T03:02:05.797Z,13.62
2023-05-19T03:04:33.036Z,13.27
2023-05-19T03:07:00.304Z,13.35
2023-05-19T03:09:27.453Z,12.85
2023-05-19T03:11:54.532Z,13.02
2023-05-19T03:14:24.287Z,12.74
2023-05-19T03:16:51.893Z,12.55
2023-05-19T03:19:19.385Z,12.40
2023-05-19T03:21:47.744Z,12.39
2023-05-19T03:24:15.056Z,12.31
2023-05-19T03:26:42.970Z,12.07
2023-05-19T03:29:10.252Z,12.26
2023-05-19T03:31:38.235Z,12.30
2023-05-19T03:34:05.806Z,12.30
2023-05-19T03:36:33.072Z,12.34
2023-05-19T03:39:01.224Z,12.20
2023-05-19T03:41:29.555Z,12.19
2023-05-19T03:43:56.693Z,12.10
2023-05-19T03:46:24.045Z,11.98
2023-05-19T03:48:54.554Z,12.05
2023-05-19T03:51:51.227Z,12.10
2023-05-19T03:54:26.431Z,12.17
2023-05-19T03:56:53.564Z,12.26
2023-05-19T03:59:20.827Z,12.20
2023-05-19T04:01:48.995Z,12.34
2023-05-19T04:04:16.072Z,12.55
2023-05-19T04:06:45.891Z,12.68
2023-05-19T04:09:14.805Z,12.81
2023-05-19T04:11:43.083Z,12.86
2023-05-19T04:14:10.195Z,12.85
2023-05-19T04:16:38.344Z,12.86
2023-05-19T04:19:06.013Z,12.95
2023-05-19T04:21:33.483Z,12.79
2023-05-19T04:24:00.634Z,12.93
2023-05-19T04:26:31.031Z,12.97
2023-05-19T04:28:58.355Z,13.05
2023-05-19T04:31:25.839Z,12.96
2023-05-19T04:33:53.616Z,13.16
2023-05-19T04:36:22.592Z,13.14
2023-05-19T04:38:55.059Z,13.20
2023-05-19T04:41:25.812Z,13.05
2023-05-19T04:43:53.288Z,12.86
2023-05-19T04:46:24.503Z,12.98
2023-05-19T04:48:55.567Z,12.90
2023-05-19T04:51:30.292Z,12.82
2023-05-19T04:54:01.735Z,12.56
2023-05-19T04:56:29.072Z,12.52
2023-05-19T04:58:57.257Z,12.43
2023-05-19T05:01:26.590Z,12.30
2023-05-19T05:03:56.153Z,12.22
2023-05-19T05:06:23.427Z,12.05
2023-05-19T05:08:51.520Z,12.02
2023-05-19T05:11:19.139Z,12.24
2023-05-19T05:13:47.414Z,12.20
2023-05-19T05:16:15.456Z,12.17
2023-05-19T05:18:44.854Z,12.27
2023-05-19T05:21:13.156Z,12.23
2023-05-19T05:23:41.181Z,11.99
2023-05-19T05:26:19.263Z,11.67
2023-05-19T05:28:49.554Z,12.05
2023-05-19T05:31:17.415Z,11.98
2023-05-19T05:33:45.669Z,12.04
2023-05-19T05:36:14.980Z,12.08
2023-05-19T05:38:42.322Z,12.12
2023-05-19T05:41:09.595Z,12.11
2023-05-19T05:43:37.882Z,11.97
2023-05-19T05:46:05.380Z,11.96
2023-05-19T05:48:32.782Z,11.85
2023-05-19T05:51:00.887Z,11.89
2023-05-19T05:53:37.251Z,11.95
2023-05-19T05:56:05.197Z,12.08
2023-05-19T05:58:40.930Z,12.17
2023-05-19T06:01:11.757Z,12.16
2023-05-19T06:03:41.299Z,12.16
2023-05-19T06:06:11.224Z,12.21
2023-05-19T06:08:39.565Z,12.12
2023-05-19T06:11:09.632Z,12.20
2023-05-19T06:13:41.543Z,12.25
2023-05-19T06:16:12.659Z,12.16
2023-05-19T06:18:43.960Z,11.96
2023-05-19T06:21:13.599Z,12.06
2023-05-19T06:23:42.204Z,12.07
2023-05-19T06:26:11.146Z,12.00
2023-05-19T06:28:38.434Z,11.86
2023-05-19T06:31:06.261Z,11.86
2023-05-19T06:33:42.991Z,11.92
2023-05-19T06:36:10.848Z,11.89
2023-05-19T06:38:40.133Z,11.92
2023-05-19T06:41:07.468Z,11.77
2023-05-19T06:43:35.023Z,11.83
2023-05-19T06:46:05.177Z,11.90
2023-05-19T06:48:33.728Z,11.79
2023-05-19T06:51:00.975Z,11.83
2023-05-19T06:53:28.141Z,12.02
2023-05-19T06:55:59.802Z,12.04
2023-05-19T06:58:31.399Z,11.92
2023-05-19T07:00:59.167Z,12.11
2023-05-19T07:03:31.406Z,12.08
2023-05-19T07:05:59.709Z,12.17
2023-05-19T07:08:28.555Z,12.20
2023-05-19T07:10:56.496Z,12.19
2023-05-19T07:13:25.933Z,12.34
2023-05-19T07:15:58.008Z,12.45
2023-05-19T07:18:30.288Z,12.37
2023-05-19T07:20:58.552Z,12.53
2023-05-19T07:23:25.879Z,12.68
2023-05-19T07:25:56.865Z,12.73
2023-05-19T07:28:24.355Z,12.71
2023-05-19T07:30:52.165Z,12.71
2023-05-19T07:33:19.349Z,12.71
2023-05-19T07:35:46.577Z,12.82
2023-05-19T07:38:13.763Z,12.86
2023-05-19T07:40:40.922Z,12.97
2023-05-19T07:43:07.999Z,13.04
2023-05-19T07:45:35.200Z,13.05
2023-05-19T07:48:02.468Z,13.11
2023-05-19T07:50:29.635Z,13.06
2023-05-19T07:52:56.824Z,13.17
2023-05-19T07:55:23.865Z,13.20
2023-05-19T07:57:51.122Z,13.26
2023-05-19T08:00:18.495Z,13.44
2023-05-19T08:02:45.897Z,13.63
2023-05-19T08:05:13.179Z,13.99
2023-05-19T08:07:40.337Z,14.44
2023-05-19T08:10:07.992Z,14.66
2023-05-19T08:12:34.995Z,14.93
2023-05-19T08:15:02.218Z,15.07
2023-05-19T08:17:32.059Z,15.55
2023-05-19T08:20:00.477Z,15.57
2023-05-19T08:22:28.235Z,16.02
2023-05-19T08:24:55.244Z,15.96
2023-05-19T08:27:22.595Z,16.04
2023-05-19T08:29:49.844Z,16.26
2023-05-19T08:32:17.555Z,16.24
2023-05-19T08:34:44.765Z,16.62
2023-05-19T08:37:12.078Z,16.88
2023-05-19T08:39:39.293Z,16.95
2023-05-19T08:42:10.281Z,16.65
2023-05-19T08:44:40.166Z,16.63
2023-05-19T08:47:12.936Z,16.44
2023-05-19T08:49:45.754Z,16.25
2023-05-19T08:52:35.653Z,16.12
2023-05-19T08:55:09.853Z,16.05
2023-05-19T08:57:38.467Z,15.84
2023-05-19T09:00:11.317Z,15.90
2023-05-19T09:02:50.425Z,16.06
2023-05-19T09:05:27.208Z,16.28
2023-05-19T09:07:55.268Z,16.72
2023-05-19T09:10:22.419Z,17.09
2023-05-19T09:12:49.955Z,17.38
2023-05-19T09:15:21.110Z,17.54
2023-05-19T09:17:48.626Z,17.60
2023-05-19T09:20:17.271Z,17.60
2023-05-19T09:22:47.948Z,17.72
2023-05-19T09:25:19.538Z,17.82
2023-05-19T09:27:48.777Z,18.50
2023-05-19T09:30:17.765Z,18.99
2023-05-19T09:32:45.656Z,19.59
2023-05-19T09:35:13.961Z,20.06
2023-05-19T09:37:41.638Z,20.73
2023-05-19T09:40:11.901Z,20.92
2023-05-19T09:42:41.396Z,21.02
2023-05-19T09:45:09.484Z,21.28
2023-05-19T09:47:41.543Z,21.98
2023-05-19T09:50:12.207Z,22.17
2023-05-19T09:52:40.944Z,22.18
2023-05-19T09:55:13.341Z,22.45
2023-05-19T09:57:40.921Z,22.92
2023-05-19T10:00:17.574Z,23.10
2023-05-19T10:02:46.830Z,22.55
2023-05-19T10:05:17.641Z,22.60
2023-05-19T10:07:45.986Z,22.37
2023-05-19T10:10:16.510Z,22.94
2023-05-19T10:12:43.937Z,22.82
2023-05-19T10:15:12.963Z,22.68
2023-05-19T10:17:41.505Z,22.83
2023-05-19T10:20:16.826Z,23.68
2023-05-19T10:22:46.227Z,23.90
2023-05-19T10:25:15.414Z,24.32
2023-05-19T10:27:51.433Z,23.76
2023-05-19T10:30:27.192Z,23.08
2023-05-19T10:32:57.446Z,22.33
2023-05-19T10:35:43.427Z,22.60
2023-05-19T10:39:03.045Z,22.92
2023-05-19T10:42:02.102Z,23.17
2023-05-19T10:44:38.260Z,23.00
2023-05-19T10:47:07.693Z,22.75
2023-05-19T10:49:36.871Z,22.35
2023-05-19T10:52:04.436Z,22.07
2023-05-19T10:54:49.891Z,22.03
2023-05-19T10:57:18.267Z,22.02
2023-05-19T10:59:45.637Z,21.85
2023-05-19T11:02:39.980Z,21.66
2023-05-19T11:05:09.610Z,21.84
2023-05-19T11:07:36.986Z,22.17
2023-05-19T11:10:07.856Z,22.03
2023-05-19T11:12:46.122Z,21.84
2023-05-19T11:15:16.791Z,21.86
2023-05-19T11:17:48.984Z,21.90
2023-05-19T11:20:30.088Z,22.19
2023-05-19T11:23:07.106Z,21.94
2023-05-19T11:25:48.492Z,21.64
2023-05-19T11:28:19.644Z,21.62
2023-05-19T11:30:52.336Z,21.65
2023-05-19T11:33:21.670Z,21.63
2023-05-19T11:35:51.297Z,21.69
2023-05-19T11:38:23.778Z,21.88
2023-05-19T11:40:53.889Z,21.75
2023-05-19T11:43:25.011Z,22.08
2023-05-19T11:45:54.673Z,22.20
2023-05-19T11:48:22.620Z,22.63
2023-05-19T11:50:50.409Z,22.76
2023-05-19T11:53:19.884Z,23.11
2023-05-19T11:55:48.969Z,23.12
2023-05-19T11:58:17.073Z,22.52
2023-05-19T12:00:48.309Z,22.26
2023-05-19T12:03:16.194Z,21.86
2023-05-19T12:05:49.207Z,21.63
2023-05-19T12:08:18.926Z,21.55
2023-05-19T12:10:50.892Z,21.11
2023-05-19T12:13:17.996Z,20.94
2023-05-19T12:15:45.110Z,21.15
2023-05-19T12:18:12.400Z,21.28
2023-05-19T12:20:39.770Z,21.13
2023-05-19T12:23:07.736Z,21.09
2023-05-19T12:25:35.534Z,21.44
2023-05-19T12:28:05.692Z,21.93
2023-05-19T12:30:34.766Z,22.24
2023-05-19T12:33:03.329Z,22.24
2023-05-19T12:35:36.514Z,22.11
2023-05-19T12:38:05.538Z,22.02
2023-05-19T12:40:35.553Z,21.86
2023-05-19T12:43:03.501Z,21.59
2023-05-19T12:45:35.570Z,21.61
2023-05-19T12:48:06.839Z,21.64
2023-05-19T12:50:34.723Z,21.62
2023-05-19T12:53:02.200Z,21.58
2023-05-19T12:55:30.163Z,21.62
2023-05-19T12:57:58.692Z,21.55
2023-05-19T13:00:29.203Z,21.69
2023-05-19T13:03:00.108Z,21.18
2023-05-19T13:05:32.145Z,21.09
2023-05-19T13:08:06.893Z,21.11
2023-05-19T13:10:36.306Z,21.39
2023-05-19T13:13:04.571Z,21.34
2023-05-19T13:15:36.531Z,21.59
2023-05-19T13:18:14.473Z,21.74
2023-05-19T13:20:43.430Z,21.85
2023-05-19T13:23:11.945Z,21.49
2023-05-19T13:25:39.328Z,21.08
2023-05-19T13:28:06.897Z,20.72
2023-05-19T13:30:35.401Z,20.68
2023-05-19T13:33:03.342Z,20.88
2023-05-19T13:35:37.062Z,20.93
2023-05-19T13:38:06.099Z,20.81
2023-05-19T13:40:34.782Z,21.00
2023-05-19T13:43:03.660Z,20.83
2023-05-19T13:45:31.014Z,21.06
2023-05-19T13:47:58.477Z,21.04
2023-05-19T13:50:25.853Z,21.03
2023-05-19T13:52:53.412Z,21.21
2023-05-19T13:55:20.753Z,20.97
2023-05-19T13:57:47.844Z,20.90
2023-05-19T14:00:15.526Z,20.71
2023-05-19T14:02:43.365Z,20.47
2023-05-19T14:05:10.687Z,20.13
2023-05-19T14:07:38.496Z,19.92
2023-05-19T14:10:07.022Z,19.69
2023-05-19T14:12:49.564Z,19.67
2023-05-19T14:15:23.873Z,19.60
2023-05-19T14:17:51.158Z,19.51
2023-05-19T14:20:18.303Z,19.52
2023-05-19T14:22:45.374Z,19.31
2023-05-19T14:25:12.480Z,19.34
2023-05-19T14:27:42.588Z,19.25
2023-05-19T14:30:09.842Z,19.03
2023-05-19T14:32:36.949Z,18.68
2023-05-19T14:35:04.493Z,18.59
2023-05-19T14:37:32.441Z,18.65
2023-05-19T14:40:00.207Z,18.68
2023-05-19T14:42:27.369Z,18.49
2023-05-19T14:44:54.538Z,18.52
2023-05-19T14:47:21.782Z,18.42
2023-05-19T14:49:49.078Z,18.56
2023-05-19T14:52:16.533Z,18.63
2023-05-19T14:54:43.644Z,18.50
2023-05-19T14:57:11.105Z,18.39
2023-05-19T14:59:38.851Z,18.49
2023-05-19T15:02:06.548Z,18.38
2023-05-19T15:04:33.773Z,18.31
2023-05-19T15:09:31.246Z,18.48
2023-05-19T15:12:01.343Z,18.57
2023-05-19T15:14:30.758Z,18.65
2023-05-19T15:16:58.750Z,18.45
2023-05-19T15:19:26.249Z,18.57
2023-05-19T15:21:53.723Z,18.42
2023-05-19T15:24:21.038Z,18.34
2023-05-19T15:26:48.154Z,18.35
2023-05-19T15:29:15.312Z,18.08
2023-05-19T15:31:42.619Z,18.26
2023-05-19T15:34:09.912Z,18.29
2023-05-19T15:36:37.181Z,18.27
2023-05-19T15:39:05.292Z,18.29
2023-05-19T15:41:32.498Z,18.19
2023-05-19T15:44:03.028Z,18.13
2023-05-19T15:46:30.784Z,18.03
2023-05-19T15:48:58.204Z,17.95
2023-05-19T15:51:25.914Z,17.78
2023-05-19T15:53:54.355Z,17.63
2023-05-19T15:56:21.764Z,17.58
2023-05-19T15:58:49.253Z,17.49
2023-05-19T16:01:16.908Z,17.39
2023-05-19T16:03:45.377Z,17.42
2023-05-19T16:06:12.839Z,17.40
2023-05-19T16:08:40.144Z,17.43
2023-05-19T16:11:07.361Z,17.35
2023-05-19T16:13:34.823Z,17.29
2023-05-19T16:16:02.298Z,17.18
2023-05-19T16:18:29.761Z,17.25
2023-05-19T16:20:57.021Z,17.14
2023-05-19T16:23:25.001Z,17.32
2023-05-19T16:25:52.402Z,17.26
2023-05-19T16:28:19.684Z,17.13
2023-05-19T16:30:47.170Z,17.35
2023-05-19T16:33:14.219Z,17.19
2023-05-19T16:35:41.353Z,17.28
2023-05-19T16:38:09.085Z,17.25
2023-05-19T16:40:36.503Z,17.15
2023-05-19T16:43:03.879Z,16.96
2023-05-19T16:45:31.329Z,17.03
2023-05-19T16:47:58.450Z,17.04
2023-05-19T16:50:28.779Z,17.03
2023-05-19T16:52:55.980Z,16.99
2023-05-19T16:55:23.116Z,16.98
2023-05-19T16:57:50.147Z,17.33
2023-05-19T17:00:17.576Z,18.03
2023-05-19T17:02:44.960Z,18.11
2023-05-19T17:05:12.159Z,17.91
2023-05-19T17:07:39.236Z,17.80
2023-05-19T17:10:06.728Z,17.42
2023-05-19T17:12:33.965Z,17.18
2023-05-19T17:15:02.308Z,17.26
2023-05-19T17:17:32.037Z,17.20
2023-05-19T17:19:59.995Z,17.11
2023-05-19T17:22:28.260Z,17.29
2023-05-19T17:24:57.688Z,17.38
2023-05-19T17:27:24.782Z,17.61
2023-05-19T17:29:52.090Z,17.49
2023-05-19T17:32:22.755Z,17.30
2023-05-19T17:34:50.073Z,17.49
2023-05-19T17:37:19.269Z,17.68
2023-05-19T17:39:46.376Z,17.81
2023-05-19T17:42:13.538Z,17.57
2023-05-19T17:44:41.443Z,17.36
2023-05-19T17:47:08.521Z,16.94
2023-05-19T17:49:35.668Z,16.58
2023-05-19T17:52:03.002Z,16.43
2023-05-19T17:54:30.403Z,16.18
2023-05-19T17:56:59.207Z,15.95
2023-05-19T17:59:26.441Z,15.84
2023-05-19T18:01:54.027Z,15.60
2023-05-19T18:04:21.536Z,15.47
2023-05-19T18:06:52.384Z,15.13
2023-05-19T18:09:20.282Z,15.06
2023-05-19T18:11:47.804Z,14.94
2023-05-19T18:14:15.023Z,14.50
2023-05-19T18:16:42.282Z,14.49
2023-05-19T18:19:09.617Z,14.31
2023-05-19T18:21:36.786Z,14.19
2023-05-19T18:24:04.622Z,14.05
2023-05-19T18:26:33.236Z,13.95
2023-05-19T18:29:02.963Z,13.90
2023-05-19T18:31:30.106Z,13.80
2023-05-19T18:33:57.310Z,13.75
2023-05-19T18:36:24.322Z,13.56
2023-05-19T18:38:51.480Z,13.61
2023-05-19T18:41:18.676Z,13.51
2023-05-19T18:43:45.850Z,13.39
2023-05-19T18:46:13.721Z,13.32
2023-05-19T18:48:40.944Z,12.55
2023-05-19T18:51:09.070Z,13.18
2023-05-19T18:53:37.640Z,13.10
2023-05-19T18:56:05.130Z,12.84
2023-05-19T18:58:32.758Z,12.98
2023-05-19T19:00:59.932Z,12.90
2023-05-19T19:03:28.781Z,12.73
2023-05-19T19:05:57.335Z,12.73
2023-05-19T19:08:24.721Z,12.69
2023-05-19T19:10:52.233Z,12.69
2023-05-19T19:13:19.466Z,12.48
2023-05-19T19:15:46.659Z,12.56
2023-05-19T19:18:13.915Z,12.49
2023-05-19T19:20:41.194Z,12.39
2023-05-19T19:23:08.401Z,12.38
2023-05-19T19:25:35.800Z,12.14
2023-05-19T19:28:03.663Z,12.31
2023-05-19T19:30:30.769Z,12.32
2023-05-19T19:32:59.613Z,12.18
2023-05-19T19:35:26.895Z,12.19
2023-05-19T19:37:54.053Z,12.15
2023-05-19T19:40:21.230Z,12.11
2023-05-19T19:42:48.453Z,12.00
2023-05-19T19:45:15.910Z,12.02
2023-05-19T19:47:43.997Z,11.97
2023-05-19T19:50:11.694Z,11.97
2023-05-19T19:52:39.133Z,11.87
2023-05-19T19:55:06.626Z,11.81
2023-05-19T19:57:34.418Z,11.81
2023-05-19T20:00:08.490Z,11.62
2023-05-19T20:02:45.520Z,11.64
2023-05-19T20:05:19.038Z,11.70
2023-05-19T20:07:46.167Z,11.63
2023-05-19T20:10:13.415Z,11.51
2023-05-19T20:12:40.663Z,11.47
2023-05-19T20:15:08.455Z,11.41
2023-05-19T20:17:35.864Z,11.44
2023-05-19T20:20:08.104Z,11.33
2023-05-19T20:22:35.384Z,11.11
2023-05-19T20:25:02.617Z,11.22
2023-05-19T20:27:31.785Z,11.13
2023-05-19T20:29:59.019Z,11.21
2023-05-19T20:32:26.358Z,11.08
2023-05-19T20:34:53.462Z,11.01
2023-05-19T20:37:22.309Z,11.02
2023-05-19T20:39:49.624Z,10.96
2023-05-19T20:42:16.790Z,10.96
2023-05-19T20:44:44.111Z,10.94
2023-05-19T20:47:11.708Z,10.92
2023-05-19T20:49:39.048Z,10.85
2023-05-19T20:52:06.432Z,10.82
2023-05-19T20:54:33.750Z,10.75
2023-05-19T20:57:01.444Z,10.72
2023-05-19T20:59:28.599Z,10.51
2023-05-19T21:01:55.824Z,10.66
2023-05-19T21:04:22.974Z,10.64
2023-05-19T21:06:50.222Z,10.60
2023-05-19T21:09:17.454Z,10.45
2023-05-19T21:11:45.135Z,10.32
2023-05-19T21:14:12.268Z,10.40
2023-05-19T21:16:39.606Z,10.46
2023-05-19T21:19:07.153Z,10.35
2023-05-19T21:21:34.369Z,10.39
2023-05-19T21:24:01.426Z,10.29
2023-05-19T21:26:28.543Z,10.33
2023-05-19T21:28:55.730Z,10.10
2023-05-19T21:31:23.076Z,10.34
2023-05-19T21:33:50.367Z,10.32
2023-05-19T21:36:18.417Z,10.28
2023-05-19T21:38:45.583Z,10.13
2023-05-19T21:41:12.649Z,10.15
2023-05-19T21:43:41.360Z,10.07
2023-05-19T21:46:08.463Z,10.07
2023-05-19T21:48:35.858Z,10.16
2023-05-19T21:51:03.180Z,10.08
2023-05-19T21:53:31.534Z,9.98
2023-05-19T21:55:59.936Z,9.91
2023-05-19T21:58:27.013Z,9.71
2023-05-19T22:00:57.228Z,9.84
2023-05-19T22:03:24.456Z,9.91
2023-05-19T22:05:53.055Z,9.89
2023-05-19T22:08:20.822Z,9.71
2023-05-19T22:10:52.280Z,9.91
2023-05-19T22:13:20.474Z,9.87
2023-05-19T22:15:47.763Z,9.80
2023-05-19T22:18:14.888Z,9.92
2023-05-19T22:20:42.109Z,9.90
2023-05-19T22:23:09.401Z,9.68
2023-05-19T22:25:36.644Z,9.66
2023-05-19T22:28:05.737Z,9.62
2023-05-19T22:30:32.941Z,9.63
2023-05-19T22:33:00.301Z,9.45
2023-05-19T22:35:27.470Z,9.52
2023-05-19T22:37:55.808Z,9.57
2023-05-19T22:40:22.896Z,9.46
2023-05-19T22:42:49.961Z,9.53
2023-05-19T22:45:17.198Z,9.36
2023-05-19T22:47:44.299Z,9.37
2023-05-19T22:50:12.398Z,9.49
2023-05-19T22:52:39.529Z,9.32
2023-05-19T22:55:07.462Z,9.34
2023-05-19T22:57:34.626Z,9.27
2023-05-19T23:00:01.749Z,9.22
2023-05-19T23:02:33.562Z,9.10
2023-05-19T23:05:00.956Z,9.29
2023-05-19T23:07:28.118Z,9.29
2023-05-19T23:09:55.332Z,9.32
2023-05-19T23:12:22.505Z,9.22
2023-05-19T23:14:49.628Z,9.22
2023-05-19T23:17:16.846Z,9.22
2023-05-19T23:19:43.929Z,9.22
2023-05-19T23:22:11.293Z,9.20
2023-05-19T23:24:38.916Z,9.20
2023-05-19T23:27:06.263Z,9.20
2023-05-19T23:29:33.341Z,9.20
2023-05-19T23:32:00.407Z,9.18
2023-05-19T23:34:27.483Z,9.23
2023-05-19T23:36:54.600Z,9.26
2023-05-19T23:39:22.236Z,9.28
2023-05-19T23:41:49.314Z,9.30
2023-05-19T23:44:16.451Z,9.31
2023-05-19T23:46:43.709Z,9.23
2023-05-19T23:49:10.931Z,9.38
2023-05-19T23:51:38.111Z,9.44
2023-05-19T23:54:05.225Z,9.54
2023-05-19T23:56:32.220Z,9.49
2023-05-19T23:58:59.414Z,9.44
